Time;durP1;ratioP1;P1;durP2;ratioP2;P2;SDS_P1;SDS_P2;PMS_P1;PMS_P2;Temp;Humidity;BMP_temperature;BMP_pressure;BME280_temperature;BME280_humidity;BME280_pressure;Samples;Min_cycle;Max_cycle;Signal;HPM_P1;HPM_P2
2021/04/01 00:02:15;;;;;;;;;;;;;;;21.59;23.93;98267.81;5044450;28;918;-76
2021/04/01 00:04:41;;;;;;;;;;;;;;;21.69;23.73;98268.81;5043122;28;884;-76
2021/04/01 00:07:07;;;;;;;;;;;;;;;21.63;23.82;98270.56;5044209;28;1182;-76
2021/04/01 00:09:32;;;;;;;;;;;;;;;21.39;24.27;98269.06;5043771;28;682;-75
2021/04/01 00:11:57;;;;;;;;;;;;;;;21.96;23.43;98262.13;5044653;28;599;-76
2021/04/01 00:14:29;;;;;;;;;;;;;;;22.35;22.87;98267.66;5043761;28;729;-76
2021/04/01 00:16:58;;;;;;;;;;;;;;;22.40;22.75;98268.38;5044013;28;856;-76
2021/04/01 00:19:23;;;;;;;;;;;;;;;22.06;23.23;98269.56;5043111;28;1882;-77
2021/04/01 00:21:49;;;;;;;;;;;;;;;21.90;23.53;98263.88;5044263;28;990;-76
2021/04/01 00:24:14;;;;;;;;;;;;;;;21.79;23.66;98264.13;5043322;28;657;-76
2021/04/01 00:26:40;;;;;;;;;;;;;;;21.92;23.27;98258.59;5044196;28;658;-76
2021/04/01 00:29:05;;;;;;;;;;;;;;;22.22;23.08;98263.91;5042393;28;911;-76
2021/04/01 00:31:31;;;;;;;;;;;;;;;22.42;22.88;98263.03;5042865;28;1163;-76
2021/04/01 00:33:58;;;;;;;;;;;;;;;22.19;22.76;98258.38;5043208;28;894;-76
2021/04/01 00:36:23;;;;;;;;;;;;;;;21.89;23.30;98259.47;5044507;28;952;-77
2021/04/01 00:38:48;;;;;;;;;;;;;;;21.65;23.73;98253.91;5025851;28;1958;-76
2021/04/01 00:41:14;;;;;;;;;;;;;;;21.78;23.68;98254.06;5043904;28;594;-76
2021/04/01 00:43:39;;;;;;;;;;;;;;;21.90;23.40;98249.72;5042346;28;677;-76
2021/04/01 00:46:05;;;;;;;;;;;;;;;21.80;23.43;98249.53;5043942;28;831;-77
2021/04/01 00:48:30;;;;;;;;;;;;;;;21.66;23.70;98249.88;5042659;28;932;-76
2021/04/01 00:50:56;;;;;;;;;;;;;;;21.61;23.93;98244.72;5043777;28;881;-76
2021/04/01 00:53:21;;;;;;;;;;;;;;;21.75;23.58;98244.38;5042682;28;687;-76
2021/04/01 00:55:47;;;;;;;;;;;;;;;22.09;23.25;98237.50;5043679;28;598;-76
2021/04/01 00:58:12;;;;;;;;;;;;;;;22.36;22.77;98240.09;5042675;28;1962;-76
2021/04/01 01:00:38;;;;;;;;;;;;;;;22.50;22.49;98225.56;5043404;28;947;-76
2021/04/01 01:03:03;;;;;;;;;;;;;;;22.04;23.25;98223.88;5042371;28;926;-76
2021/04/01 01:05:33;;;;;;;;;;;;;;;21.92;23.56;98224.59;5043359;28;1012;-76
2021/04/01 01:07:58;;;;;;;;;;;;;;;21.73;23.36;98232.72;5043075;28;614;-76
2021/04/01 01:10:27;;;;;;;;;;;;;;;22.05;23.53;98226.25;5042547;28;666;-76
2021/04/01 01:12:52;;;;;;;;;;;;;;;22.29;23.09;98221.25;5042421;28;583;-76
2021/04/01 01:15:18;;;;;;;;;;;;;;;22.49;22.48;98226.00;5041977;28;980;-76
2021/04/01 01:17:43;;;;;;;;;;;;;;;22.11;22.97;98218.06;5042038;28;1973;-77
2021/04/01 01:20:09;;;;;;;;;;;;;;;21.88;23.51;98221.03;5042844;28;982;-76
2021/04/01 01:22:38;;;;;;;;;;;;;;;21.84;23.52;98221.91;5042636;28;722;-77
2021/04/01 01:25:07;;;;;;;;;;;;;;;21.85;23.66;98214.22;5042653;28;710;-77
2021/04/01 01:27:33;;;;;;;;;;;;;;;21.84;23.49;98210.59;5043881;28;690;-77
2021/04/01 01:29:58;;;;;;;;;;;;;;;21.91;23.49;98220.16;5041392;28;1160;-76
2021/04/01 01:32:24;;;;;;;;;;;;;;;21.91;23.65;98215.28;5043695;28;843;-77
2021/04/01 01:34:49;;;;;;;;;;;;;;;21.72;23.75;98214.13;5042415;28;949;-77
2021/04/01 01:37:15;;;;;;;;;;;;;;;21.98;23.42;98214.31;5043129;28;1963;-77
2021/04/01 01:39:40;;;;;;;;;;;;;;;22.20;23.16;98215.41;5042622;28;607;-76
2021/04/01 01:42:06;;;;;;;;;;;;;;;22.31;22.82;98204.56;5042918;28;644;-76
2021/04/01 01:44:31;;;;;;;;;;;;;;;22.29;22.79;98212.75;5041628;28;910;-76
2021/04/01 01:46:57;;;;;;;;;;;;;;;22.12;22.99;98208.31;5042209;28;827;-76
2021/04/01 01:49:22;;;;;;;;;;;;;;;21.67;23.63;98203.31;5041650;28;978;-76
2021/04/01 01:51:48;;;;;;;;;;;;;;;21.88;23.77;98210.50;5042990;28;650;-77
2021/04/01 01:54:13;;;;;;;;;;;;;;;22.26;23.16;98207.16;5042480;28;599;-76
2021/04/01 01:56:39;;;;;;;;;;;;;;;22.54;22.51;98205.63;5043335;28;702;-77
2021/04/01 01:59:04;;;;;;;;;;;;;;;22.62;22.51;98207.00;5041719;28;1976;-76
2021/04/01 02:01:30;;;;;;;;;;;;;;;22.55;22.70;98205.16;5042934;28;864;-76
2021/04/01 02:03:55;;;;;;;;;;;;;;;22.20;22.83;98206.91;5041927;28;984;-76
2021/04/01 02:06:21;;;;;;;;;;;;;;;21.78;23.67;98211.56;5042701;28;1196;-77
2021/04/01 02:08:47;;;;;;;;;;;;;;;22.14;23.09;98208.69;5041654;28;631;-76
2021/04/01 02:11:16;;;;;;;;;;;;;;;21.96;23.46;98205.44;5042476;28;1294;-77
2021/04/01 02:13:41;;;;;;;;;;;;;;;21.70;23.82;98205.25;5040764;28;943;-76
2021/04/01 02:16:07;;;;;;;;;;;;;;;21.70;23.63;98208.09;5043219;28;822;-77
2021/04/01 02:18:32;;;;;;;;;;;;;;;21.67;23.72;98192.00;5040431;28;1902;-76
2021/04/01 02:20:59;;;;;;;;;;;;;;;21.70;23.82;98188.25;5043084;28;674;-77
2021/04/01 02:23:25;;;;;;;;;;;;;;;21.74;23.68;98199.50;5041439;28;673;-76
2021/04/01 02:25:51;;;;;;;;;;;;;;;21.55;24.09;98198.34;5042459;28;622;-76
2021/04/01 02:28:17;;;;;;;;;;;;;;;21.54;24.00;98191.09;5040355;28;974;-76
2021/04/01 02:30:43;;;;;;;;;;;;;;;21.63;23.75;98199.78;5042213;28;1072;-76
2021/04/01 02:33:09;;;;;;;;;;;;;;;21.82;23.73;98201.75;5041462;28;831;-76
2021/04/01 02:35:34;;;;;;;;;;;;;;;21.66;23.80;98204.56;5042404;28;614;-76
2021/04/01 02:38:00;;;;;;;;;;;;;;;21.88;23.44;98201.22;5040669;28;1918;-76
2021/04/01 02:40:25;;;;;;;;;;;;;;;22.24;22.94;98193.44;5042150;28;666;-76
2021/04/01 02:42:51;;;;;;;;;;;;;;;22.37;22.65;98202.00;5041235;28;975;-76
2021/04/01 02:45:16;;;;;;;;;;;;;;;22.32;22.81;98188.34;5041300;28;845;-76
2021/04/01 02:47:42;;;;;;;;;;;;;;;22.10;23.30;98199.44;5041970;28;939;-76
2021/04/01 02:50:07;;;;;;;;;;;;;;;21.91;23.12;98200.31;5041755;28;598;-76
2021/04/01 02:52:36;;;;;;;;;;;;;;;21.89;23.26;98195.09;5041945;28;655;-76
2021/04/01 02:55:02;;;;;;;;;;;;;;;22.06;23.13;98193.06;5042852;28;618;-75
2021/04/01 02:57:27;;;;;;;;;;;;;;;22.30;23.22;98197.31;5044706;28;1977;-76
2021/04/01 02:59:53;;;;;;;;;;;;;;;22.41;22.52;98197.03;5043918;28;940;-76
2021/04/01 03:02:19;;;;;;;;;;;;;;;22.04;23.01;98196.34;5045527;28;764;-76
2021/04/01 03:04:46;;;;;;;;;;;;;;;21.70;23.59;98199.59;5044838;28;654;-78
2021/04/01 03:07:11;;;;;;;;;;;;;;;21.83;23.58;98197.66;5045895;28;758;-76
2021/04/01 03:09:37;;;;;;;;;;;;;;;21.76;23.67;98192.19;5045064;28;642;-77
2021/04/01 03:12:03;;;;;;;;;;;;;;;21.87;23.48;98196.78;5045481;28;842;-76
2021/04/01 03:14:28;;;;;;;;;;;;;;;21.65;23.70;98200.13;5044272;28;852;-76
2021/04/01 03:16:53;;;;;;;;;;;;;;;21.68;23.81;98202.06;5045814;28;964;-76
2021/04/01 03:19:19;;;;;;;;;;;;;;;21.76;23.69;98192.19;5044589;28;1902;-77
2021/04/01 03:21:45;;;;;;;;;;;;;;;21.55;24.05;98201.16;5045518;28;595;-76
2021/04/01 03:24:11;;;;;;;;;;;;;;;21.66;23.92;98193.25;5044561;28;631;-76
2021/04/01 03:26:36;;;;;;;;;;;;;;;21.65;23.94;98202.94;5044495;28;1015;-76
2021/04/01 03:29:02;;;;;;;;;;;;;;;21.57;23.80;98201.53;5044186;28;936;-76
2021/04/01 03:31:27;;;;;;;;;;;;;;;21.44;24.15;98209.09;5044205;28;1173;-76
2021/04/01 03:33:53;;;;;;;;;;;;;;;21.40;24.21;98197.06;5044713;28;607;-76
2021/04/01 03:36:18;;;;;;;;;;;;;;;21.55;23.95;98204.00;5045614;28;639;-76
2021/04/01 03:38:46;;;;;;;;;;;;;;;21.43;24.17;98201.88;5044249;28;1971;-76
2021/04/01 03:41:11;;;;;;;;;;;;;;;21.45;24.12;98205.03;5045032;28;970;-76
2021/04/01 03:43:37;;;;;;;;;;;;;;;21.46;23.96;98201.00;5043716;28;910;-76
2021/04/01 03:46:03;;;;;;;;;;;;;;;21.29;23.86;98203.72;5044858;28;1186;-76
2021/04/01 03:48:28;;;;;;;;;;;;;;;21.37;24.26;98200.78;5043628;28;730;-76
2021/04/01 03:50:53;;;;;;;;;;;;;;;20.94;25.03;98196.03;5044496;28;695;-76
2021/04/01 03:53:19;;;;;;;;;;;;;;;21.36;24.12;98208.50;5042966;28;642;-76
2021/04/01 03:55:45;;;;;;;;;;;;;;;21.26;24.07;98210.28;5044745;28;1038;-76
2021/04/01 04:07:06;;;;;;;;;;;;;;;21.32;23.88;98214.22;4964225;28;1222;-76
2021/04/01 04:09:46;;;;;;;;;;;;;;;20.55;25.16;98211.72;4964351;29;652;-77
2021/04/01 04:12:26;;;;;;;;;;;;;;;21.00;24.92;98216.91;5026433;28;906;-77
2021/04/01 04:15:08;;;;;;;;;;;;;;;21.79;23.51;98218.81;5043675;28;966;-76
2021/04/01 04:17:34;;;;;;;;;;;;;;;21.89;23.63;98222.63;5044473;28;1992;-77
2021/04/01 04:19:59;;;;;;;;;;;;;;;22.16;23.05;98214.69;5043918;28;640;-76
2021/04/01 04:22:25;;;;;;;;;;;;;;;22.11;22.97;98206.72;5044254;28;658;-76
2021/04/01 04:24:51;;;;;;;;;;;;;;;22.19;22.74;98213.81;5043727;28;709;-77
2021/04/01 04:30:00;;;;;;;;;;;;;;;22.06;23.07;98216.50;5043127;28;1171;-77
2021/04/01 04:32:26;;;;;;;;;;;;;;;21.73;23.36;98214.91;5044209;28;718;-76
2021/04/01 04:34:52;;;;;;;;;;;;;;;21.61;23.35;98222.09;5043692;28;606;-71
2021/04/01 04:37:17;;;;;;;;;;;;;;;22.03;23.04;98216.63;5042741;28;714;-77
2021/04/01 04:39:43;;;;;;;;;;;;;;;22.21;23.04;98222.66;5042411;28;670;-77
2021/04/01 04:42:08;;;;;;;;;;;;;;;22.30;22.60;98225.66;5043555;28;1054;-77
2021/04/01 04:44:34;;;;;;;;;;;;;;;22.42;22.54;98214.84;5042763;28;912;-77
2021/04/01 04:46:59;;;;;;;;;;;;;;;22.20;22.78;98218.22;5043204;28;993;-77
2021/04/01 04:49:25;;;;;;;;;;;;;;;21.68;23.54;98202.06;5042477;28;677;-75
2021/04/01 04:51:50;;;;;;;;;;;;;;;21.54;23.87;98216.56;5043579;28;654;-77
2021/04/01 04:54:15;;;;;;;;;;;;;;;21.63;23.80;98208.28;5042670;28;606;-77
2021/04/01 04:56:41;;;;;;;;;;;;;;;22.45;22.63;98213.97;5042555;28;1020;-77
2021/04/01 04:59:14;;;;;;;;;;;;;;;22.68;22.14;98208.03;5041776;28;1894;-77
2021/04/01 05:07:01;;;;;;;;;;;;;;;21.78;23.71;98206.69;5043276;28;731;-77
2021/04/01 05:09:27;;;;;;;;;;;;;;;22.23;23.04;98223.03;5042304;28;680;-77
2021/04/01 05:11:52;;;;;;;;;;;;;;;22.49;22.76;98214.66;5042500;28;1126;-77
2021/04/01 05:14:17;;;;;;;;;;;;;;;22.22;22.85;98210.06;5041269;28;937;-77
2021/04/01 05:16:43;;;;;;;;;;;;;;;22.09;22.92;98204.31;5042554;28;884;-77
2021/04/01 05:19:09;;;;;;;;;;;;;;;21.93;23.30;98212.00;5041451;28;1894;-77
2021/04/01 05:21:44;;;;;;;;;;;;;;;21.87;23.37;98202.47;5042634;28;621;-77
2021/04/01 05:24:10;;;;;;;;;;;;;;;22.13;23.30;98214.78;5042115;28;646;-77
2021/04/01 05:29:08;;;;;;;;;;;;;;;22.33;22.83;98207.78;5041664;28;866;-77
2021/04/01 05:31:36;;;;;;;;;;;;;;;22.00;23.18;98206.16;5042510;28;1215;-77
2021/04/01 05:34:01;;;;;;;;;;;;;;;21.68;23.85;98202.06;5041917;28;610;-77
2021/04/01 05:36:28;;;;;;;;;;;;;;;21.92;23.52;98204.75;5042461;28;659;-76
2021/04/01 05:38:55;;;;;;;;;;;;;;;22.29;22.95;98209.91;5040844;28;1910;-77
2021/04/01 05:41:25;;;;;;;;;;;;;;;22.48;22.60;98213.03;5042018;28;1078;-76
2021/04/01 05:44:38;;;;;;;;;;;;;;;21.98;23.07;98209.44;5041279;28;947;-77
2021/04/01 05:46:43;;;;;;;;;;;;;;;21.81;23.17;98214.31;5028209;28;1030;-77
2021/04/01 06:00:00;;;;;;;;;;;;;;;21.75;23.68;98224.56;5040514;28;1898;-77
2021/04/01 06:02:52;;;;;;;;;;;;;;;21.70;23.83;98230.75;5041669;28;1337;-76
2021/04/01 06:05:11;;;;;;;;;;;;;;;21.83;23.54;98225.19;5040680;28;963;-77
2021/04/01 06:07:39;;;;;;;;;;;;;;;21.71;24.03;98229.53;5041632;28;644;-77
2021/04/01 06:10:04;;;;;;;;;;;;;;;21.77;23.81;98238.31;5041493;28;710;-77
2021/04/01 06:12:30;;;;;;;;;;;;;;;21.67;24.14;98242.97;5040983;28;901;-77
2021/04/01 06:15:02;;;;;;;;;;;;;;;22.14;23.57;98237.00;5040627;28;911;-77
2021/04/01 06:17:29;;;;;;;;;;;;;;;22.39;22.99;98244.09;5041393;28;1959;-77
2021/04/01 06:19:56;;;;;;;;;;;;;;;22.38;22.82;98237.59;5041661;28;626;-77
2021/04/01 06:22:21;;;;;;;;;;;;;;;22.15;23.06;98241.44;5042311;28;653;-77
2021/04/01 06:24:47;;;;;;;;;;;;;;;21.85;23.64;98234.84;5041278;28;872;-77
2021/04/01 06:29:41;;;;;;;;;;;;;;;21.73;23.90;98244.03;5041818;28;859;-77
2021/04/01 06:32:20;;;;;;;;;;;;;;;21.67;23.99;98251.47;5045783;28;1124;-77
2021/04/01 06:34:46;;;;;;;;;;;;;;;21.75;23.91;98252.88;5045349;28;659;-77
2021/04/01 06:37:29;;;;;;;;;;;;;;;21.82;23.80;98247.06;5045521;28;634;-77
2021/04/01 06:39:58;;;;;;;;;;;;;;;21.73;23.66;98244.03;5044615;28;658;-77
2021/04/01 06:42:25;;;;;;;;;;;;;;;21.70;23.90;98244.09;5044747;28;846;-77
2021/04/01 06:44:53;;;;;;;;;;;;;;;21.54;24.18;98244.88;5044114;28;948;-77
2021/04/01 06:47:20;;;;;;;;;;;;;;;21.69;23.90;98248.19;5045399;28;841;-77
2021/04/01 06:50:01;;;;;;;;;;;;;;;21.73;23.79;98255.38;5044983;28;683;-77
2021/04/01 06:52:44;;;;;;;;;;;;;;;22.03;23.68;98256.28;5044862;28;647;-76
2021/04/01 06:55:27;;;;;;;;;;;;;;;22.27;23.07;98257.72;5044481;28;626;-77
2021/04/01 06:58:03;;;;;;;;;;;;;;;22.38;22.86;98253.81;5044775;28;1971;-77
2021/04/01 07:00:36;;;;;;;;;;;;;;;21.96;23.62;98256.44;5044417;28;869;-76
2021/04/01 07:03:11;;;;;;;;;;;;;;;21.91;23.45;98259.81;5044729;28;637;-77
2021/04/01 07:05:51;;;;;;;;;;;;;;;22.02;23.28;98254.69;5045251;28;655;-77
2021/04/01 07:08:25;;;;;;;;;;;;;;;21.92;23.83;98256.56;5044783;28;702;-77
2021/04/01 07:13:48;;;;;;;;;;;;;;;21.80;23.56;98258.03;5026426;28;1264;-76
2021/04/01 07:16:20;;;;;;;;;;;;;;;21.78;23.66;98263.34;5044658;28;845;-77
2021/04/01 07:48:26;;;;;;;;;;;;;;;21.62;24.07;98257.66;5043325;28;1056;-77
2021/04/01 07:50:51;;;;;;;;;;;;;;;21.84;23.76;98250.25;5044778;28;610;-76
2021/04/01 07:53:23;;;;;;;;;;;;;;;21.82;23.60;98247.06;5043646;28;659;-76
2021/04/01 07:56:12;;;;;;;;;;;;;;;21.77;23.96;98253.25;5043745;28;751;-77
2021/04/01 08:01:21;;;;;;;;;;;;;;;22.33;22.90;98247.47;5044406;28;987;-77
2021/04/01 08:03:59;;;;;;;;;;;;;;;22.22;23.03;98246.91;5042583;28;1027;-77
2021/04/01 08:06:25;;;;;;;;;;;;;;;22.14;23.27;98251.19;5044511;28;629;-77
2021/04/01 08:08:52;;;;;;;;;;;;;;;21.86;23.78;98258.28;5043362;28;1271;-77
2021/04/01 08:11:26;;;;;;;;;;;;;;;21.59;24.31;98250.03;5043927;28;732;-77
2021/04/01 08:13:58;;;;;;;;;;;;;;;21.77;23.91;98244.75;5043091;28;633;-77
2021/04/01 08:16:23;;;;;;;;;;;;;;;21.87;23.87;98242.13;5043161;28;1134;-77
2021/04/01 08:18:52;;;;;;;;;;;;;;;21.83;23.96;98237.31;5041764;28;1902;-77
2021/04/01 08:21:18;;;;;;;;;;;;;;;21.72;23.90;98228.28;5043095;28;1051;-76
2021/04/01 08:23:46;;;;;;;;;;;;;;;21.76;23.85;98240.34;5043024;28;643;-77
2021/04/01 08:36:44;;;;;;;;;;;;;;;21.76;24.02;98231.00;5043953;28;745;-77
2021/04/01 08:39:09;;;;;;;;;;;;;;;21.86;23.84;98235.63;5042784;28;1979;-77
2021/04/01 08:41:39;;;;;;;;;;;;;;;21.70;24.06;98225.06;5043548;28;686;-77
2021/04/01 08:44:23;;;;;;;;;;;;;;;21.70;23.75;98227.91;5042853;28;647;-77
2021/04/01 08:47:01;;;;;;;;;;;;;;;22.07;23.38;98234.31;5043039;28;965;-77
2021/04/01 08:49:35;;;;;;;;;;;;;;;22.37;23.04;98227.50;5041436;28;828;-77
2021/04/01 08:52:00;;;;;;;;;;;;;;;22.24;23.22;98227.44;5043277;28;654;-77
2021/04/01 08:54:45;;;;;;;;;;;;;;;21.98;23.33;98232.13;5042507;28;610;-77
2021/04/01 08:57:11;;;;;;;;;;;;;;;21.81;23.94;98217.16;5043153;28;672;-77
2021/04/01 08:59:37;;;;;;;;;;;;;;;21.76;24.04;98225.34;5042548;28;1965;-77
2021/04/01 09:02:02;;;;;;;;;;;;;;;21.56;24.14;98216.94;5042537;28;1104;-76
2021/04/01 09:04:29;;;;;;;;;;;;;;;21.63;23.99;98219.59;5041473;28;897;-77
2021/04/01 09:07:10;;;;;;;;;;;;;;;21.74;23.81;98214.47;5042348;28;868;-77
2021/04/01 09:09:37;;;;;;;;;;;;;;;21.78;23.77;98223.69;5041711;28;699;-77
2021/04/01 09:12:26;;;;;;;;;;;;;;;21.69;23.89;98220.66;5042944;28;730;-77
2021/04/01 09:14:59;;;;;;;;;;;;;;;21.67;24.24;98223.16;5042147;28;706;-77
2021/04/01 09:17:43;;;;;;;;;;;;;;;21.61;24.21;98224.13;5042025;28;932;-77
2021/04/01 09:20:19;;;;;;;;;;;;;;;22.14;23.13;98222.84;5041230;28;873;-77
2021/04/01 09:22:45;;;;;;;;;;;;;;;22.26;23.09;98224.94;5042523;28;678;-77
2021/04/01 09:25:11;;;;;;;;;;;;;;;22.33;22.93;98224.78;5042251;28;678;-77
2021/04/01 09:27:50;;;;;;;;;;;;;;;21.75;23.99;98221.72;5042430;28;714;-77
2021/04/01 09:30:15;;;;;;;;;;;;;;;21.84;23.65;98230.41;5042199;28;973;-77
2021/04/01 09:32:41;;;;;;;;;;;;;;;21.89;23.75;98219.81;5041937;28;918;-77
2021/04/01 09:35:07;;;;;;;;;;;;;;;21.89;23.78;98223.44;5041047;28;854;-77
2021/04/01 09:37:33;;;;;;;;;;;;;;;21.82;24.01;98217.94;5041796;28;1898;-77
2021/04/01 09:40:08;;;;;;;;;;;;;;;21.79;23.84;98216.78;5041271;28;611;-77
2021/04/01 09:42:42;;;;;;;;;;;;;;;21.82;23.78;98210.25;5041930;28;813;-77
2021/04/01 09:45:07;;;;;;;;;;;;;;;22.03;23.44;98210.97;5042205;28;643;-77
2021/04/01 09:47:33;;;;;;;;;;;;;;;22.34;23.31;98215.03;5041399;28;999;-77
2021/04/01 09:50:02;;;;;;;;;;;;;;;22.55;22.86;98215.72;5041791;28;902;-77
2021/04/01 09:52:28;;;;;;;;;;;;;;;22.26;23.25;98227.78;5042351;28;946;-77
2021/04/01 09:54:54;;;;;;;;;;;;;;;22.01;23.77;98214.22;5041664;28;701;-76
2021/04/01 09:57:20;;;;;;;;;;;;;;;22.05;23.43;98208.47;5042295;28;698;-77
2021/04/01 09:59:48;;;;;;;;;;;;;;;21.95;23.65;98198.19;5041419;28;1979;-77
2021/04/01 10:02:34;;;;;;;;;;;;;;;22.26;23.23;98202.28;5041728;28;1032;-77
2021/04/01 10:05:03;;;;;;;;;;;;;;;22.47;23.21;98200.91;5044036;28;1098;-77
2021/04/01 10:07:33;;;;;;;;;;;;;;;22.13;23.23;98204.25;5045914;28;749;-76
2021/04/01 10:09:59;;;;;;;;;;;;;;;21.85;23.73;98200.84;5046053;28;642;-80
2021/04/01 10:12:34;;;;;;;;;;;;;;;21.89;23.65;98199.97;5045479;28;638;-76
2021/04/01 10:15:02;;;;;;;;;;;;;;;21.78;24.13;98205.91;5045516;28;618;-77
2021/04/01 10:17:27;;;;;;;;;;;;;;;21.84;24.01;98198.47;5045871;28;968;-78
2021/04/01 10:19:56;;;;;;;;;;;;;;;21.81;23.96;98183.16;5044455;28;1910;-77
2021/04/01 10:22:22;;;;;;;;;;;;;;;21.72;24.12;98191.47;5046545;28;935;-78
2021/04/01 10:25:00;;;;;;;;;;;;;;;21.76;23.90;98180.84;5028391;28;1001;-78
2021/04/01 10:27:29;;;;;;;;;;;;;;;21.62;24.19;98178.38;5045328;28;783;-77
2021/04/01 10:32:24;;;;;;;;;;;;;;;21.67;24.24;98180.66;5046166;28;919;-78
2021/04/01 10:34:51;;;;;;;;;;;;;;;21.68;24.12;98173.75;5044409;28;952;-78
2021/04/01 10:37:16;;;;;;;;;;;;;;;22.13;23.58;98163.78;5046374;28;694;-78
2021/04/01 10:39:42;;;;;;;;;;;;;;;22.43;22.91;98159.72;5045312;28;1973;-78
2021/04/01 10:42:11;;;;;;;;;;;;;;;22.33;22.97;98159.59;5046228;28;698;-78
2021/04/01 10:44:36;;;;;;;;;;;;;;;22.12;23.63;98168.63;5044987;28;669;-78
2021/04/01 10:47:03;;;;;;;;;;;;;;;22.04;23.72;98167.22;5045440;28;834;-78
2021/04/01 10:49:30;;;;;;;;;;;;;;;21.90;23.92;98150.56;5045400;28;874;-77
2021/04/01 10:51:56;;;;;;;;;;;;;;;22.08;23.84;98162.25;5045228;28;975;-78
2021/04/01 10:54:22;;;;;;;;;;;;;;;22.36;23.26;98146.53;5044980;28;795;-79
2021/04/01 10:56:53;;;;;;;;;;;;;;;22.43;23.03;98154.84;5044763;28;645;-78
2021/04/01 10:59:38;;;;;;;;;;;;;;;22.08;23.57;98145.25;5044591;28;1969;-78
2021/04/01 11:02:07;;;;;;;;;;;;;;;21.97;23.84;98145.53;5045821;28;1047;-78
2021/04/01 11:04:33;;;;;;;;;;;;;;;21.90;23.71;98139.22;5044260;28;904;-78
2021/04/01 11:06:59;;;;;;;;;;;;;;;21.74;24.16;98134.38;5045165;28;670;-78
2021/04/01 11:09:25;;;;;;;;;;;;;;;21.62;24.19;98127.41;5043763;28;770;-78
2021/04/01 11:12:09;;;;;;;;;;;;;;;21.75;24.24;98124.63;5045120;28;793;-78
2021/04/01 11:14:35;;;;;;;;;;;;;;;22.02;23.61;98119.50;5044620;28;710;-78
2021/04/01 11:17:00;;;;;;;;;;;;;;;22.39;23.35;98125.81;5044434;28;846;-79
2021/04/01 11:19:29;;;;;;;;;;;;;;;22.62;22.88;98127.59;5043959;28;1918;-78
2021/04/01 11:21:54;;;;;;;;;;;;;;;22.22;23.17;98112.91;5045161;28;978;-78
2021/04/01 11:24:27;;;;;;;;;;;;;;;22.06;23.66;98108.84;5044889;28;662;-78
2021/04/01 11:26:52;;;;;;;;;;;;;;;21.73;24.05;98112.97;5046007;28;765;-78
2021/04/01 11:29:17;;;;;;;;;;;;;;;21.85;23.80;98101.69;5043823;28;714;-78
2021/04/01 11:31:43;;;;;;;;;;;;;;;21.76;24.08;98107.22;5027163;28;939;-78
2021/04/01 11:34:08;;;;;;;;;;;;;;;21.83;23.91;98090.03;5043786;28;917;-78
2021/04/01 11:36:41;;;;;;;;;;;;;;;21.77;24.21;98091.81;5044718;28;881;-79
2021/04/01 11:39:36;;;;;;;;;;;;;;;21.83;23.99;98089.25;5044563;28;1963;-78
2021/04/01 11:41:52;;;;;;;;;;;;;;;21.76;24.01;98089.41;5045255;28;1078;-78
2021/04/01 11:44:26;;;;;;;;;;;;;;;21.74;24.05;98084.19;5043615;28;729;-78
2021/04/01 11:46:52;;;;;;;;;;;;;;;21.55;24.22;98085.09;5028863;28;839;-78
2021/04/01 11:49:17;;;;;;;;;;;;;;;21.86;23.91;98085.50;5044056;28;898;-78
2021/04/01 11:51:42;;;;;;;;;;;;;;;22.30;23.13;98081.09;5044678;28;1432;-78
2021/04/01 11:54:21;;;;;;;;;;;;;;;22.49;22.79;98081.41;5044034;28;630;-78
2021/04/01 11:56:47;;;;;;;;;;;;;;;21.99;23.76;98075.03;5045005;28;789;-78
2021/04/01 11:59:18;;;;;;;;;;;;;;;22.02;23.71;98073.34;5043694;28;1902;-78
2021/04/01 12:02:08;;;;;;;;;;;;;;;21.82;23.68;98071.44;5043960;28;1077;-78
2021/04/01 12:04:34;;;;;;;;;;;;;;;21.71;24.09;98059.59;5043218;28;960;-78
2021/04/01 12:07:00;;;;;;;;;;;;;;;21.71;24.11;98053.94;5028424;28;870;-78
2021/04/01 12:09:26;;;;;;;;;;;;;;;21.77;23.85;98055.00;5044072;28;634;-78
2021/04/01 12:11:52;;;;;;;;;;;;;;;22.25;23.20;98058.97;5044111;28;694;-78
2021/04/01 12:14:17;;;;;;;;;;;;;;;22.48;22.97;98054.25;5043829;28;610;-78
2021/04/01 12:16:43;;;;;;;;;;;;;;;22.38;22.97;98049.69;5026617;28;993;-78
2021/04/01 12:19:08;;;;;;;;;;;;;;;22.11;23.52;98048.03;5043018;28;1910;-78
2021/04/01 12:21:34;;;;;;;;;;;;;;;22.02;23.51;98039.34;5044468;28;841;-78
2021/04/01 12:24:01;;;;;;;;;;;;;;;21.90;23.66;98037.25;5043011;28;654;-78
2021/04/01 12:26:30;;;;;;;;;;;;;;;21.69;23.97;98039.41;5027167;28;823;-78
2021/04/01 12:29:03;;;;;;;;;;;;;;;21.71;24.03;98033.31;5025498;28;1264;-78
2021/04/01 12:31:35;;;;;;;;;;;;;;;21.78;24.02;98035.97;5043372;28;1030;-78
2021/04/01 12:34:01;;;;;;;;;;;;;;;21.73;24.13;98034.47;5043210;28;833;-78
2021/04/01 12:36:33;;;;;;;;;;;;;;;21.70;23.97;98023.22;5043380;28;705;-78
2021/04/01 12:38:59;;;;;;;;;;;;;;;21.84;23.83;98020.81;5043171;28;1913;-78
2021/04/01 12:41:24;;;;;;;;;;;;;;;21.70;23.79;98024.00;5044298;28;630;-78
2021/04/01 12:43:50;;;;;;;;;;;;;;;22.10;23.66;98006.75;5042980;28;621;-78
2021/04/01 12:46:15;;;;;;;;;;;;;;;22.29;23.40;98017.16;5043973;28;919;-78
2021/04/01 12:48:42;;;;;;;;;;;;;;;22.56;22.65;98015.97;5042334;28;870;-78
2021/04/01 12:51:08;;;;;;;;;;;;;;;22.18;23.63;98008.16;5043622;28;885;-78
2021/04/01 12:53:34;;;;;;;;;;;;;;;21.98;23.67;98005.47;5041812;28;775;-78
2021/04/01 12:56:07;;;;;;;;;;;;;;;21.72;24.03;98010.22;5043485;28;790;-78
2021/04/01 12:58:38;;;;;;;;;;;;;;;21.81;24.09;98009.56;5026015;28;2025;-78
2021/04/01 13:01:14;;;;;;;;;;;;;;;21.58;24.33;97999.25;5043700;28;943;-77
2021/04/01 13:03:40;;;;;;;;;;;;;;;21.67;24.13;97990.94;5025120;28;861;-78
2021/04/01 13:06:10;;;;;;;;;;;;;;;21.69;23.96;97991.28;5043572;28;874;-78
2021/04/01 13:11:10;;;;;;;;;;;;;;;22.15;23.47;97997.72;5043851;28;733;-78
2021/04/01 13:13:35;;;;;;;;;;;;;;;22.51;23.05;97991.00;5041495;28;907;-78
2021/04/01 13:16:01;;;;;;;;;;;;;;;22.17;23.71;97989.53;5042608;28;1033;-78
2021/04/01 13:18:26;;;;;;;;;;;;;;;22.07;23.85;97982.13;5041603;28;1875;-78
2021/04/01 13:20:52;;;;;;;;;;;;;;;21.95;23.90;97977.22;5043425;28;877;-78
2021/04/01 13:23:42;;;;;;;;;;;;;;;21.82;23.97;97986.47;5041365;28;659;-78
2021/04/01 13:26:10;;;;;;;;;;;;;;;21.79;24.18;97980.91;5042743;28;794;-79
2021/04/01 13:28:35;;;;;;;;;;;;;;;21.73;24.06;97983.47;5041308;28;1430;-78
2021/04/01 13:31:01;;;;;;;;;;;;;;;21.62;24.34;97977.31;5042858;28;1001;-78
2021/04/01 13:33:42;;;;;;;;;;;;;;;21.56;24.21;97979.09;5024529;28;921;-79
2021/04/01 13:36:17;;;;;;;;;;;;;;;21.96;23.85;97978.81;5042605;28;724;-79
2021/04/01 13:38:43;;;;;;;;;;;;;;;22.34;23.32;97982.56;5041582;28;1891;-79
2021/04/01 13:41:11;;;;;;;;;;;;;;;22.49;23.01;97982.94;5043487;28;706;-79
2021/04/01 13:43:37;;;;;;;;;;;;;;;22.11;23.72;97968.69;5041749;28;634;-79
2021/04/01 13:46:02;;;;;;;;;;;;;;;21.77;24.00;97980.56;5042961;28;1025;-79
2021/04/01 13:48:28;;;;;;;;;;;;;;;21.71;24.42;97969.00;5041313;28;892;-79
2021/04/01 13:51:01;;;;;;;;;;;;;;;21.78;24.30;97973.66;5042507;28;1018;-78
2021/04/01 13:56:29;;;;;;;;;;;;;;;22.54;23.20;97971.03;4986305;28;1207;-79
2021/04/01 13:59:17;;;;;;;;;;;;;;;22.28;23.46;97960.91;5034167;28;1894;-79
2021/04/01 14:09:33;;;;;;;;;;;;;;;21.75;24.25;97958.34;5041077;28;663;-79
2021/04/01 14:11:59;;;;;;;;;;;;;;;21.65;24.42;97959.41;5042360;28;741;-79
2021/04/01 14:14:25;;;;;;;;;;;;;;;21.56;24.40;97959.28;5041144;28;659;-79
2021/04/01 14:16:54;;;;;;;;;;;;;;;21.63;24.36;97966.78;5042367;28;911;-79
2021/04/01 14:19:20;;;;;;;;;;;;;;;21.72;24.30;97947.13;5040958;28;1910;-79
2021/04/01 14:21:45;;;;;;;;;;;;;;;21.66;24.45;97966.69;5041790;28;967;-79
2021/04/01 14:24:17;;;;;;;;;;;;;;;22.25;23.73;97956.94;5041072;28;956;-79
2021/04/01 14:26:57;;;;;;;;;;;;;;;22.54;23.22;97961.75;5042634;28;622;-79
2021/04/01 14:29:23;;;;;;;;;;;;;;;22.05;23.65;97953.44;5042349;28;690;-78
2021/04/01 14:31:48;;;;;;;;;;;;;;;22.02;24.12;97960.00;5041873;28;966;-79
2021/04/01 14:34:14;;;;;;;;;;;;;;;21.76;24.30;97964.78;5041248;28;830;-79
2021/04/01 14:36:39;;;;;;;;;;;;;;;21.77;24.29;97950.19;5042046;28;952;-79
2021/04/01 14:39:06;;;;;;;;;;;;;;;21.91;24.03;97959.53;5041502;28;1980;-79
2021/04/01 14:41:37;;;;;;;;;;;;;;;22.30;23.48;97953.53;5042047;28;783;-79
2021/04/01 14:46:29;;;;;;;;;;;;;;;22.17;23.79;97949.09;5041690;28;831;-79
2021/04/01 14:48:56;;;;;;;;;;;;;;;21.89;24.35;97950.69;5040831;28;935;-79